sensor_id;sensor_type;location;lat;lon;timestamp;pressure;altitude;pressure_sealevel;temperature;humidity
12991;BME280;6560;57.692;11.958;2023-06-26T00:01:14;101288.63;;;26.23;100.00
12991;BME280;6560;57.692;11.958;2023-06-26T00:03:40;101291.84;;;26.06;100.00
12991;BME280;6560;57.692;11.958;2023-06-26T00:06:06;101297.50;;;26.17;100.00
12991;BME280;6560;57.692;11.958;2023-06-26T00:08:32;101293.13;;;26.67;100.00
12991;BME280;6560;57.692;11.958;2023-06-26T00:10:57;101288.03;;;26.84;100.00
12991;BME280;6560;57.692;11.958;2023-06-26T00:13:23;101288.06;;;26.87;100.00
12991;BME280;6560;57.692;11.958;2023-06-26T00:15:50;101263.31;;;26.66;100.00
12991;BME280;6560;57.692;11.958;2023-06-26T00:18:15;101288.97;;;26.87;100.00
12991;BME280;6560;57.692;11.958;2023-06-26T00:20:41;101285.81;;;26.62;100.00
12991;BME280;6560;57.692;11.958;2023-06-26T00:23:06;101283.94;;;26.59;100.00
12991;BME280;6560;57.692;11.958;2023-06-26T00:25:34;101285.72;;;26.58;100.00
12991;BME280;6560;57.692;11.958;2023-06-26T00:28:00;101274.69;;;26.46;100.00
12991;BME280;6560;57.692;11.958;2023-06-26T00:30:27;101274.69;;;26.46;100.00
12991;BME280;6560;57.692;11.958;2023-06-26T00:32:54;101276.63;;;26.53;100.00
12991;BME280;6560;57.692;11.958;2023-06-26T00:35:19;101275.81;;;26.59;100.00
12991;BME280;6560;57.692;11.958;2023-06-26T00:37:45;101278.41;;;26.51;100.00
12991;BME280;6560;57.692;11.958;2023-06-26T00:40:10;101258.34;;;26.40;100.00
12991;BME280;6560;57.692;11.958;2023-06-26T00:42:36;101255.69;;;26.42;100.00
12991;BME280;6560;57.692;11.958;2023-06-26T00:45:01;101274.16;;;26.64;100.00
12991;BME280;6560;57.692;11.958;2023-06-26T00:47:27;101262.22;;;26.09;100.00
12991;BME280;6560;57.692;11.958;2023-06-26T00:49:54;101274.03;;;25.72;100.00
12991;BME280;6560;57.692;11.958;2023-06-26T00:52:21;101266.06;;;25.78;100.00
12991;BME280;6560;57.692;11.958;2023-06-26T00:54:47;101257.78;;;25.71;100.00
12991;BME280;6560;57.692;11.958;2023-06-26T00:57:13;101267.03;;;25.82;100.00
12991;BME280;6560;57.692;11.958;2023-06-26T00:59:39;101260.88;;;25.89;100.00
12991;BME280;6560;57.692;11.958;2023-06-26T01:02:04;101262.75;;;25.93;100.00
12991;BME280;6560;57.692;11.958;2023-06-26T01:04:31;101267.38;;;25.97;100.00
12991;BME280;6560;57.692;11.958;2023-06-26T01:06:59;101260.66;;;25.80;100.00
12991;BME280;6560;57.692;11.958;2023-06-26T01:09:25;101268.50;;;25.68;100.00
12991;BME280;6560;57.692;11.958;2023-06-26T01:11:51;101267.78;;;25.75;100.00
12991;BME280;6560;57.692;11.958;2023-06-26T01:14:17;101251.50;;;25.72;100.00
12991;BME280;6560;57.692;11.958;2023-06-26T01:16:43;101247.47;;;25.55;100.00
12991;BME280;6560;57.692;11.958;2023-06-26T01:19:19;101259.72;;;25.76;100.00
12991;BME280;6560;57.692;11.958;2023-06-26T01:21:54;101254.03;;;25.64;100.00
12991;BME280;6560;57.692;11.958;2023-06-26T01:24:22;101261.09;;;25.98;100.00
12991;BME280;6560;57.692;11.958;2023-06-26T01:26:53;101242.16;;;26.00;100.00
12991;BME280;6560;57.692;11.958;2023-06-26T01:29:20;101248.63;;;26.05;100.00
12991;BME280;6560;57.692;11.958;2023-06-26T01:31:49;101249.66;;;26.11;100.00
12991;BME280;6560;57.692;11.958;2023-06-26T01:34:17;101250.41;;;26.06;100.00
12991;BME280;6560;57.692;11.958;2023-06-26T01:36:44;101246.00;;;26.09;100.00
12991;BME280;6560;57.692;11.958;2023-06-26T01:39:13;101233.34;;;26.08;100.00
12991;BME280;6560;57.692;11.958;2023-06-26T01:41:38;101233.84;;;26.33;100.00
12991;BME280;6560;57.692;11.958;2023-06-26T01:49:25;101230.00;;;25.76;100.00
12991;BME280;6560;57.692;11.958;2023-06-26T01:52:19;101232.53;;;25.69;100.00
12991;BME280;6560;57.692;11.958;2023-06-26T01:57:35;101228.44;;;25.89;100.00
12991;BME280;6560;57.692;11.958;2023-06-26T02:00:02;101233.59;;;25.77;100.00
12991;BME280;6560;57.692;11.958;2023-06-26T02:02:31;101227.22;;;25.73;100.00
12991;BME280;6560;57.692;11.958;2023-06-26T02:04:56;101225.38;;;25.71;100.00
12991;BME280;6560;57.692;11.958;2023-06-26T02:07:22;101224.91;;;25.93;100.00
12991;BME280;6560;57.692;11.958;2023-06-26T02:09:47;101205.88;;;25.45;100.00
12991;BME280;6560;57.692;11.958;2023-06-26T02:12:13;101214.13;;;25.53;100.00
12991;BME280;6560;57.692;11.958;2023-06-26T02:14:39;101207.66;;;25.45;100.00
12991;BME280;6560;57.692;11.958;2023-06-26T02:17:05;101217.28;;;25.71;100.00
12991;BME280;6560;57.692;11.958;2023-06-26T02:19:30;101217.72;;;25.52;100.00
12991;BME280;6560;57.692;11.958;2023-06-26T02:21:56;101217.47;;;25.82;100.00
12991;BME280;6560;57.692;11.958;2023-06-26T02:24:21;101215.34;;;25.65;100.00
12991;BME280;6560;57.692;11.958;2023-06-26T02:26:47;101202.88;;;25.72;100.00
12991;BME280;6560;57.692;11.958;2023-06-26T02:29:14;101165.78;;;25.63;100.00
12991;BME280;6560;57.692;11.958;2023-06-26T02:31:39;101205.75;;;25.81;100.00
12991;BME280;6560;57.692;11.958;2023-06-26T02:34:07;101200.06;;;25.66;100.00
12991;BME280;6560;57.692;11.958;2023-06-26T02:36:32;101198.41;;;25.74;100.00
12991;BME280;6560;57.692;11.958;2023-06-26T02:38:58;101193.13;;;25.78;100.00
12991;BME280;6560;57.692;11.958;2023-06-26T02:41:23;101197.47;;;25.72;100.00
12991;BME280;6560;57.692;11.958;2023-06-26T02:43:49;101186.09;;;25.88;100.00
12991;BME280;6560;57.692;11.958;2023-06-26T02:46:14;101186.59;;;25.69;100.00
12991;BME280;6560;57.692;11.958;2023-06-26T02:48:40;101191.03;;;25.67;100.00
12991;BME280;6560;57.692;11.958;2023-06-26T02:51:05;101179.63;;;25.80;100.00
12991;BME280;6560;57.692;11.958;2023-06-26T02:53:31;101181.56;;;25.87;100.00
12991;BME280;6560;57.692;11.958;2023-06-26T02:55:56;101174.75;;;26.54;100.00
12991;BME280;6560;57.692;11.958;2023-06-26T02:58:22;101177.91;;;27.37;100.00
12991;BME280;6560;57.692;11.958;2023-06-26T03:00:47;101156.03;;;27.91;100.00
12991;BME280;6560;57.692;11.958;2023-06-26T03:03:13;101129.31;;;28.26;100.00
12991;BME280;6560;57.692;11.958;2023-06-26T03:05:39;101163.59;;;29.28;100.00
12991;BME280;6560;57.692;11.958;2023-06-26T03:08:05;101152.00;;;29.55;100.00
12991;BME280;6560;57.692;11.958;2023-06-26T03:10:30;101154.06;;;30.43;100.00
12991;BME280;6560;57.692;11.958;2023-06-26T03:12:56;101155.00;;;30.75;100.00
12991;BME280;6560;57.692;11.958;2023-06-26T03:15:21;101152.28;;;31.09;100.00
12991;BME280;6560;57.692;11.958;2023-06-26T03:17:47;101154.84;;;31.59;100.00
12991;BME280;6560;57.692;11.958;2023-06-26T03:20:12;101146.44;;;32.15;100.00
12991;BME280;6560;57.692;11.958;2023-06-26T03:22:40;101130.88;;;32.28;100.00
12991;BME280;6560;57.692;11.958;2023-06-26T03:25:06;101128.84;;;32.51;100.00
12991;BME280;6560;57.692;11.958;2023-06-26T03:27:31;101128.59;;;32.84;100.00
12991;BME280;6560;57.692;11.958;2023-06-26T03:29:57;101121.72;;;34.01;100.00
12991;BME280;6560;57.692;11.958;2023-06-26T03:32:23;101116.53;;;34.95;100.00
12991;BME280;6560;57.692;11.958;2023-06-26T03:34:50;101115.63;;;34.96;99.12
12991;BME280;6560;57.692;11.958;2023-06-26T03:37:15;101120.38;;;35.33;86.26
12991;BME280;6560;57.692;11.958;2023-06-26T03:39:41;101121.09;;;35.85;91.15
12991;BME280;6560;57.692;11.958;2023-06-26T03:42:07;101122.53;;;36.03;86.88
12991;BME280;6560;57.692;11.958;2023-06-26T03:44:32;101122.13;;;35.81;87.46
12991;BME280;6560;57.692;11.958;2023-06-26T03:46:58;101123.00;;;36.23;82.10
12991;BME280;6560;57.692;11.958;2023-06-26T03:49:23;101118.84;;;36.78;80.28
12991;BME280;6560;57.692;11.958;2023-06-26T03:51:49;101125.09;;;36.85;78.65
12991;BME280;6560;57.692;11.958;2023-06-26T03:54:14;101109.66;;;37.15;70.93
12991;BME280;6560;57.692;11.958;2023-06-26T03:56:40;101109.38;;;37.85;66.57
12991;BME280;6560;57.692;11.958;2023-06-26T03:59:05;101108.06;;;38.26;64.96
12991;BME280;6560;57.692;11.958;2023-06-26T04:01:31;101100.19;;;38.68;60.44
12991;BME280;6560;57.692;11.958;2023-06-26T04:03:56;101090.25;;;38.89;62.27
12991;BME280;6560;57.692;11.958;2023-06-26T04:06:22;101101.66;;;39.30;55.39
12991;BME280;6560;57.692;11.958;2023-06-26T04:08:47;101091.63;;;39.52;55.07
12991;BME280;6560;57.692;11.958;2023-06-26T04:11:13;101102.16;;;40.11;56.29
12991;BME280;6560;57.692;11.958;2023-06-26T04:13:39;101091.63;;;39.75;52.80
12991;BME280;6560;57.692;11.958;2023-06-26T04:16:05;101091.69;;;40.19;54.74
12991;BME280;6560;57.692;11.958;2023-06-26T04:18:31;101090.75;;;41.26;52.80
12991;BME280;6560;57.692;11.958;2023-06-26T04:21:13;101079.31;;;42.10;43.79
12991;BME280;6560;57.692;11.958;2023-06-26T04:23:39;101070.88;;;43.01;47.79
12991;BME280;6560;57.692;11.958;2023-06-26T04:26:06;101070.16;;;43.31;45.22
12991;BME280;6560;57.692;11.958;2023-06-26T04:28:32;101080.44;;;44.11;44.47
12991;BME280;6560;57.692;11.958;2023-06-26T04:31:00;101051.16;;;45.25;41.96
12991;BME280;6560;57.692;11.958;2023-06-26T04:33:26;101065.66;;;46.42;38.78
12991;BME280;6560;57.692;11.958;2023-06-26T04:35:53;101065.31;;;44.92;41.24
12991;BME280;6560;57.692;11.958;2023-06-26T04:38:20;101062.13;;;46.67;38.55
12991;BME280;6560;57.692;11.958;2023-06-26T04:40:49;101065.47;;;46.04;38.36
12991;BME280;6560;57.692;11.958;2023-06-26T04:43:15;101067.66;;;44.54;39.59
12991;BME280;6560;57.692;11.958;2023-06-26T04:45:40;101050.63;;;46.45;36.56
12991;BME280;6560;57.692;11.958;2023-06-26T04:48:06;101052.47;;;46.31;37.03
12991;BME280;6560;57.692;11.958;2023-06-26T04:50:32;101045.75;;;47.00;35.78
12991;BME280;6560;57.692;11.958;2023-06-26T04:52:59;101043.75;;;47.53;34.50
12991;BME280;6560;57.692;11.958;2023-06-26T04:55:26;101040.03;;;47.90;33.49
12991;BME280;6560;57.692;11.958;2023-06-26T04:57:52;101042.72;;;47.79;31.55
12991;BME280;6560;57.692;11.958;2023-06-26T05:00:19;101041.25;;;47.86;33.11
12991;BME280;6560;57.692;11.958;2023-06-26T05:02:45;101042.09;;;48.36;32.40
12991;BME280;6560;57.692;11.958;2023-06-26T05:05:11;101036.03;;;48.18;30.00
12991;BME280;6560;57.692;11.958;2023-06-26T05:07:37;101029.56;;;47.69;30.40
12991;BME280;6560;57.692;11.958;2023-06-26T05:10:03;101024.19;;;47.02;31.72
12991;BME280;6560;57.692;11.958;2023-06-26T05:12:28;101022.72;;;46.18;32.04
12991;BME280;6560;57.692;11.958;2023-06-26T05:14:54;101030.66;;;46.51;32.69
12991;BME280;6560;57.692;11.958;2023-06-26T05:17:20;101006.06;;;46.43;32.18
12991;BME280;6560;57.692;11.958;2023-06-26T05:19:46;101011.38;;;45.66;32.48
12991;BME280;6560;57.692;11.958;2023-06-26T05:22:12;101005.03;;;45.35;32.22
12991;BME280;6560;57.692;11.958;2023-06-26T05:24:39;101008.53;;;44.80;32.90
12991;BME280;6560;57.692;11.958;2023-06-26T05:27:05;101016.16;;;45.35;33.25
12991;BME280;6560;57.692;11.958;2023-06-26T05:29:32;101004.22;;;45.19;32.86
12991;BME280;6560;57.692;11.958;2023-06-26T05:31:59;101000.94;;;44.68;32.18
12991;BME280;6560;57.692;11.958;2023-06-26T05:34:27;100997.81;;;43.00;33.94
12991;BME280;6560;57.692;11.958;2023-06-26T05:36:59;100982.72;;;41.84;35.43
12991;BME280;6560;57.692;11.958;2023-06-26T05:39:25;100994.41;;;41.71;36.52
12991;BME280;6560;57.692;11.958;2023-06-26T05:41:51;100994.06;;;40.82;37.42
12991;BME280;6560;57.692;11.958;2023-06-26T05:44:16;100949.03;;;40.79;37.81
12991;BME280;6560;57.692;11.958;2023-06-26T05:46:43;100984.75;;;40.83;38.17
12991;BME280;6560;57.692;11.958;2023-06-26T05:49:08;100985.66;;;40.84;38.24
12991;BME280;6560;57.692;11.958;2023-06-26T05:51:34;100997.72;;;40.83;38.05
12991;BME280;6560;57.692;11.958;2023-06-26T05:54:00;100981.91;;;41.05;37.69
12991;BME280;6560;57.692;11.958;2023-06-26T05:56:26;100994.72;;;41.65;37.03
12991;BME280;6560;57.692;11.958;2023-06-26T05:58:52;100993.25;;;41.19;37.12
12991;BME280;6560;57.692;11.958;2023-06-26T06:01:18;100996.19;;;41.35;36.47
12991;BME280;6560;57.692;11.958;2023-06-26T06:03:45;100981.31;;;40.78;36.84
12991;BME280;6560;57.692;11.958;2023-06-26T06:06:11;100993.41;;;40.96;37.16
12991;BME280;6560;57.692;11.958;2023-06-26T06:08:36;101000.28;;;39.81;37.64
12991;BME280;6560;57.692;11.958;2023-06-26T06:11:02;100987.72;;;40.58;37.84
12991;BME280;6560;57.692;11.958;2023-06-26T06:13:28;100974.75;;;41.59;36.68
12991;BME280;6560;57.692;11.958;2023-06-26T06:15:54;100975.25;;;41.67;36.72
12991;BME280;6560;57.692;11.958;2023-06-26T06:18:21;100960.22;;;41.54;36.27
12991;BME280;6560;57.692;11.958;2023-06-26T06:20:47;100980.09;;;41.43;35.95
12991;BME280;6560;57.692;11.958;2023-06-26T06:23:13;100951.19;;;41.30;35.92
12991;BME280;6560;57.692;11.958;2023-06-26T06:25:38;100962.00;;;41.92;35.80
12991;BME280;6560;57.692;11.958;2023-06-26T06:28:07;100955.28;;;42.67;35.53
12991;BME280;6560;57.692;11.958;2023-06-26T06:30:32;100967.91;;;43.55;34.70
12991;BME280;6560;57.692;11.958;2023-06-26T06:32:58;100969.47;;;42.43;34.09
12991;BME280;6560;57.692;11.958;2023-06-26T06:35:23;100967.81;;;42.22;34.82
12991;BME280;6560;57.692;11.958;2023-06-26T06:37:49;100966.63;;;42.45;34.19
12991;BME280;6560;57.692;11.958;2023-06-26T06:40:15;100966.53;;;42.81;33.25
12991;BME280;6560;57.692;11.958;2023-06-26T06:42:40;100958.41;;;41.71;33.93
12991;BME280;6560;57.692;11.958;2023-06-26T06:45:06;100944.88;;;41.09;34.19
12991;BME280;6560;57.692;11.958;2023-06-26T06:47:32;100943.38;;;41.21;34.24
12991;BME280;6560;57.692;11.958;2023-06-26T06:49:58;100956.53;;;41.91;33.79
12991;BME280;6560;57.692;11.958;2023-06-26T06:52:24;100942.81;;;41.88;33.56
12991;BME280;6560;57.692;11.958;2023-06-26T06:54:53;100934.16;;;41.39;34.01
12991;BME280;6560;57.692;11.958;2023-06-26T06:57:20;100944.69;;;41.87;33.83
12991;BME280;6560;57.692;11.958;2023-06-26T06:59:46;100938.50;;;41.26;34.36
12991;BME280;6560;57.692;11.958;2023-06-26T07:02:13;100936.91;;;41.76;34.09
12991;BME280;6560;57.692;11.958;2023-06-26T07:04:38;100932.09;;;41.99;33.62
12991;BME280;6560;57.692;11.958;2023-06-26T07:07:05;100933.25;;;42.64;32.37
12991;BME280;6560;57.692;11.958;2023-06-26T07:09:30;100933.00;;;43.50;32.11
12991;BME280;6560;57.692;11.958;2023-06-26T07:11:56;100930.22;;;43.81;31.89
12991;BME280;6560;57.692;11.958;2023-06-26T07:14:21;100939.50;;;43.97;31.89
12991;BME280;6560;57.692;11.958;2023-06-26T07:16:47;100936.19;;;43.91;31.92
12991;BME280;6560;57.692;11.958;2023-06-26T07:19:12;100926.72;;;44.09;30.59
12991;BME280;6560;57.692;11.958;2023-06-26T07:21:38;100939.00;;;43.89;31.13
12991;BME280;6560;57.692;11.958;2023-06-26T07:24:03;100903.41;;;42.34;32.10
12991;BME280;6560;57.692;11.958;2023-06-26T07:26:29;100918.88;;;40.73;34.18
12991;BME280;6560;57.692;11.958;2023-06-26T07:28:54;100928.28;;;40.89;34.21
12991;BME280;6560;57.692;11.958;2023-06-26T07:31:22;100921.72;;;40.71;34.75
12991;BME280;6560;57.692;11.958;2023-06-26T07:33:50;100926.59;;;40.85;34.54
12991;BME280;6560;57.692;11.958;2023-06-26T07:36:16;100920.41;;;40.59;35.14
12991;BME280;6560;57.692;11.958;2023-06-26T07:38:41;100906.72;;;41.16;34.62
12991;BME280;6560;57.692;11.958;2023-06-26T07:41:08;100922.78;;;40.06;36.36
12991;BME280;6560;57.692;11.958;2023-06-26T07:43:34;100905.72;;;40.57;35.82
12991;BME280;6560;57.692;11.958;2023-06-26T07:46:00;100892.81;;;40.78;35.52
12991;BME280;6560;57.692;11.958;2023-06-26T07:48:25;100903.41;;;40.48;36.55
12991;BME280;6560;57.692;11.958;2023-06-26T07:50:51;100906.81;;;40.35;37.14
12991;BME280;6560;57.692;11.958;2023-06-26T07:53:17;100890.41;;;41.28;36.44
12991;BME280;6560;57.692;11.958;2023-06-26T07:55:46;100890.91;;;41.36;36.24
12991;BME280;6560;57.692;11.958;2023-06-26T07:58:11;100888.75;;;41.24;36.34
12991;BME280;6560;57.692;11.958;2023-06-26T08:00:37;100868.31;;;40.89;36.72
12991;BME280;6560;57.692;11.958;2023-06-26T08:03:02;100889.06;;;40.79;37.38
12991;BME280;6560;57.692;11.958;2023-06-26T08:05:28;100881.63;;;40.61;37.51
12991;BME280;6560;57.692;11.958;2023-06-26T08:07:54;100887.72;;;41.08;37.58
12991;BME280;6560;57.692;11.958;2023-06-26T08:10:19;100872.38;;;40.21;38.51
12991;BME280;6560;57.692;11.958;2023-06-26T08:12:45;100876.91;;;40.02;39.45
12991;BME280;6560;57.692;11.958;2023-06-26T08:15:12;100874.19;;;40.43;38.63
12991;BME280;6560;57.692;11.958;2023-06-26T08:17:38;100865.41;;;41.11;37.49
12991;BME280;6560;57.692;11.958;2023-06-26T08:20:04;100857.16;;;40.72;37.75
12991;BME280;6560;57.692;11.958;2023-06-26T08:22:30;100854.00;;;40.80;37.83
12991;BME280;6560;57.692;11.958;2023-06-26T08:24:56;100850.97;;;40.27;38.61
12991;BME280;6560;57.692;11.958;2023-06-26T08:27:22;100845.63;;;39.81;39.00
12991;BME280;6560;57.692;11.958;2023-06-26T08:29:47;100851.25;;;38.90;41.18
12991;BME280;6560;57.692;11.958;2023-06-26T08:32:13;100853.44;;;39.05;41.06
12991;BME280;6560;57.692;11.958;2023-06-26T08:34:41;100837.91;;;39.46;40.27
12991;BME280;6560;57.692;11.958;2023-06-26T08:37:06;100844.81;;;39.36;40.45
12991;BME280;6560;57.692;11.958;2023-06-26T08:39:34;100825.91;;;39.69;39.95
12991;BME280;6560;57.692;11.958;2023-06-26T08:42:00;100823.84;;;38.85;40.67
12991;BME280;6560;57.692;11.958;2023-06-26T08:44:25;100807.19;;;39.97;39.03
12991;BME280;6560;57.692;11.958;2023-06-26T08:46:51;100818.28;;;40.36;39.54
12991;BME280;6560;57.692;11.958;2023-06-26T08:49:25;100800.09;;;39.70;39.77
12991;BME280;6560;57.692;11.958;2023-06-26T08:51:57;100800.50;;;40.21;39.37
12991;BME280;6560;57.692;11.958;2023-06-26T08:54:28;100785.13;;;39.96;37.68
12991;BME280;6560;57.692;11.958;2023-06-26T08:56:57;100813.88;;;39.26;38.64
12991;BME280;6560;57.692;11.958;2023-06-26T08:59:24;100799.41;;;39.85;38.42
12991;BME280;6560;57.692;11.958;2023-06-26T09:01:51;100774.75;;;40.60;37.94
12991;BME280;6560;57.692;11.958;2023-06-26T09:04:16;100799.94;;;41.65;36.94
12991;BME280;6560;57.692;11.958;2023-06-26T09:06:42;100787.09;;;41.45;36.81
12991;BME280;6560;57.692;11.958;2023-06-26T09:09:09;100792.50;;;41.48;37.13
12991;BME280;6560;57.692;11.958;2023-06-26T09:11:35;100779.50;;;41.67;36.61
12991;BME280;6560;57.692;11.958;2023-06-26T09:14:01;100765.97;;;41.96;35.76
12991;BME280;6560;57.692;11.958;2023-06-26T09:16:30;100774.81;;;41.33;36.41
12991;BME280;6560;57.692;11.958;2023-06-26T09:18:56;100777.50;;;40.97;37.49
12991;BME280;6560;57.692;11.958;2023-06-26T09:21:23;100767.00;;;40.87;37.25
12991;BME280;6560;57.692;11.958;2023-06-26T09:23:49;100766.41;;;40.80;37.68
12991;BME280;6560;57.692;11.958;2023-06-26T09:26:16;100760.59;;;40.68;37.77
12991;BME280;6560;57.692;11.958;2023-06-26T09:28:42;100759.56;;;40.11;39.10
12991;BME280;6560;57.692;11.958;2023-06-26T09:31:09;100741.75;;;39.77;39.37
12991;BME280;6560;57.692;11.958;2023-06-26T09:33:38;100732.22;;;40.05;39.14
12991;BME280;6560;57.692;11.958;2023-06-26T09:36:08;100740.66;;;40.02;39.44
12991;BME280;6560;57.692;11.958;2023-06-26T09:38:36;100744.19;;;39.85;39.63
12991;BME280;6560;57.692;11.958;2023-06-26T09:41:03;100757.28;;;38.73;40.74
12991;BME280;6560;57.692;11.958;2023-06-26T09:43:28;100728.22;;;39.29;40.15
12991;BME280;6560;57.692;11.958;2023-06-26T09:45:56;100737.84;;;38.29;41.76
12991;BME280;6560;57.692;11.958;2023-06-26T09:48:21;100736.97;;;38.05;42.11
12991;BME280;6560;57.692;11.958;2023-06-26T09:50:47;100710.97;;;38.12;42.47
12991;BME280;6560;57.692;11.958;2023-06-26T09:53:15;100716.28;;;38.63;41.51
12991;BME280;6560;57.692;11.958;2023-06-26T09:55:43;100719.47;;;38.29;42.13
12991;BME280;6560;57.692;11.958;2023-06-26T09:58:12;100711.88;;;38.13;42.52
12991;BME280;6560;57.692;11.958;2023-06-26T10:00:40;100703.19;;;38.23;42.75
12991;BME280;6560;57.692;11.958;2023-06-26T10:03:07;100691.25;;;38.23;42.63
12991;BME280;6560;57.692;11.958;2023-06-26T10:05:33;100670.94;;;38.02;42.83
12991;BME280;6560;57.692;11.958;2023-06-26T10:08:02;100709.34;;;37.82;43.02
12991;BME280;6560;57.692;11.958;2023-06-26T10:10:31;100700.22;;;37.55;43.16
12991;BME280;6560;57.692;11.958;2023-06-26T10:13:08;100694.13;;;37.47;43.21
12991;BME280;6560;57.692;11.958;2023-06-26T10:15:35;100708.84;;;37.71;42.86
12991;BME280;6560;57.692;11.958;2023-06-26T10:18:02;100685.69;;;37.27;43.05
12991;BME280;6560;57.692;11.958;2023-06-26T10:20:28;100712.31;;;36.70;44.04
12991;BME280;6560;57.692;11.958;2023-06-26T10:22:55;100705.56;;;36.51;44.69
12991;BME280;6560;57.692;11.958;2023-06-26T10:25:25;100692.44;;;35.71;46.12
12991;BME280;6560;57.692;11.958;2023-06-26T10:27:55;100703.22;;;36.10;44.91
12991;BME280;6560;57.692;11.958;2023-06-26T10:30:31;100704.25;;;36.64;45.21
12991;BME280;6560;57.692;11.958;2023-06-26T10:33:00;100695.22;;;36.31;45.37
12991;BME280;6560;57.692;11.958;2023-06-26T10:35:27;100708.41;;;35.88;45.98
12991;BME280;6560;57.692;11.958;2023-06-26T10:38:00;100700.97;;;35.59;45.97
12991;BME280;6560;57.692;11.958;2023-06-26T10:40:28;100676.97;;;36.86;43.96
12991;BME280;6560;57.692;11.958;2023-06-26T10:43:10;100689.41;;;36.42;45.21
12991;BME280;6560;57.692;11.958;2023-06-26T10:45:44;100684.81;;;36.70;43.71
12991;BME280;6560;57.692;11.958;2023-06-26T10:48:09;100692.72;;;35.93;45.33
12991;BME280;6560;57.692;11.958;2023-06-26T10:50:35;100677.72;;;36.36;44.91
12991;BME280;6560;57.692;11.958;2023-06-26T10:53:24;100686.91;;;36.04;45.58
12991;BME280;6560;57.692;11.958;2023-06-26T11:01:25;100662.97;;;35.11;46.26
12991;BME280;6560;57.692;11.958;2023-06-26T11:04:05;100676.28;;;35.91;45.32
12991;BME280;6560;57.692;11.958;2023-06-26T11:06:32;100649.50;;;35.69;46.04
12991;BME280;6560;57.692;11.958;2023-06-26T11:14:26;100655.34;;;36.48;43.85
12991;BME280;6560;57.692;11.958;2023-06-26T11:16:55;100661.75;;;37.29;41.78
12991;BME280;6560;57.692;11.958;2023-06-26T11:19:21;100669.09;;;36.76;41.44
12991;BME280;6560;57.692;11.958;2023-06-26T11:21:47;100672.84;;;36.99;41.20
12991;BME280;6560;57.692;11.958;2023-06-26T11:24:13;100654.78;;;37.93;39.15
12991;BME280;6560;57.692;11.958;2023-06-26T11:26:43;100667.47;;;37.97;37.70
12991;BME280;6560;57.692;11.958;2023-06-26T11:29:10;100685.91;;;38.20;37.34
12991;BME280;6560;57.692;11.958;2023-06-26T11:31:39;100678.25;;;37.80;36.89
12991;BME280;6560;57.692;11.958;2023-06-26T11:34:07;100650.88;;;37.99;36.78
12991;BME280;6560;57.692;11.958;2023-06-26T11:36:34;100637.63;;;38.10;36.74
12991;BME280;6560;57.692;11.958;2023-06-26T11:39:19;100647.34;;;38.42;36.09
12991;BME280;6560;57.692;11.958;2023-06-26T11:41:45;100650.28;;;38.37;35.63
12991;BME280;6560;57.692;11.958;2023-06-26T11:44:10;100637.13;;;38.22;35.92
12991;BME280;6560;57.692;11.958;2023-06-26T11:46:37;100639.06;;;38.42;35.65
12991;BME280;6560;57.692;11.958;2023-06-26T11:49:06;100636.19;;;38.45;35.71
12991;BME280;6560;57.692;11.958;2023-06-26T11:51:33;100624.00;;;38.28;35.43
12991;BME280;6560;57.692;11.958;2023-06-26T11:54:02;100625.50;;;38.14;35.72
12991;BME280;6560;57.692;11.958;2023-06-26T11:56:28;100637.50;;;38.13;35.00
12991;BME280;6560;57.692;11.958;2023-06-26T11:59:11;100639.06;;;38.20;35.68
12991;BME280;6560;57.692;11.958;2023-06-26T12:01:42;100627.53;;;37.85;35.25
12991;BME280;6560;57.692;11.958;2023-06-26T12:04:12;100602.69;;;37.64;36.08
12991;BME280;6560;57.692;11.958;2023-06-26T12:06:38;100627.06;;;38.21;35.99
12991;BME280;6560;57.692;11.958;2023-06-26T12:09:10;100616.38;;;38.35;35.74
12991;BME280;6560;57.692;11.958;2023-06-26T12:11:38;100607.75;;;38.44;36.00
12991;BME280;6560;57.692;11.958;2023-06-26T12:14:06;100610.38;;;38.69;35.80
12991;BME280;6560;57.692;11.958;2023-06-26T12:16:33;100609.22;;;38.31;36.15
12991;BME280;6560;57.692;11.958;2023-06-26T12:19:02;100606.53;;;38.73;36.23
12991;BME280;6560;57.692;11.958;2023-06-26T12:21:43;100608.66;;;38.66;36.10
12991;BME280;6560;57.692;11.958;2023-06-26T12:24:17;100609.75;;;38.62;36.19
12991;BME280;6560;57.692;11.958;2023-06-26T12:26:50;100589.91;;;38.09;36.77
12991;BME280;6560;57.692;11.958;2023-06-26T12:29:19;100602.38;;;38.63;36.39
12991;BME280;6560;57.692;11.958;2023-06-26T12:31:52;100585.84;;;38.63;36.39
12991;BME280;6560;57.692;11.958;2023-06-26T12:34:27;100587.13;;;38.54;36.82
12991;BME280;6560;57.692;11.958;2023-06-26T12:37:00;100583.78;;;38.68;36.73
12991;BME280;6560;57.692;11.958;2023-06-26T12:39:26;100565.66;;;38.62;37.09
12991;BME280;6560;57.692;11.958;2023-06-26T12:41:57;100574.13;;;38.58;36.91
12991;BME280;6560;57.692;11.958;2023-06-26T12:44:27;100573.50;;;38.93;37.08
12991;BME280;6560;57.692;11.958;2023-06-26T12:46:58;100562.31;;;39.38;36.61
12991;BME280;6560;57.692;11.958;2023-06-26T12:51:56;100541.69;;;38.85;36.35
12991;BME280;6560;57.692;11.958;2023-06-26T12:54:22;100526.06;;;38.85;35.92
12991;BME280;6560;57.692;11.958;2023-06-26T12:56:49;100512.09;;;39.49;35.33
12991;BME280;6560;57.692;11.958;2023-06-26T12:59:15;100516.41;;;39.36;34.73
12991;BME280;6560;57.692;11.958;2023-06-26T13:01:41;100519.56;;;39.27;34.76
12991;BME280;6560;57.692;11.958;2023-06-26T13:04:06;100520.00;;;39.38;35.09
12991;BME280;6560;57.692;11.958;2023-06-26T13:06:33;100509.69;;;39.41;35.26
12991;BME280;6560;57.692;11.958;2023-06-26T13:09:00;100508.81;;;39.41;34.80